createdAt,value
2022-11-03T00:00:20.437Z,99.99
2022-11-03T00:01:20.209Z,99.99
2022-11-03T00:02:20.658Z,99.99
2022-11-03T00:03:20.114Z,99.99
2022-11-03T00:04:20.097Z,99.99
2022-11-03T00:05:20.083Z,99.99
2022-11-03T00:06:20.324Z,99.99
2022-11-03T00:07:20.051Z,99.99
2022-11-03T00:08:20.041Z,99.99
2022-11-03T00:09:20.272Z,99.99
2022-11-03T00:10:20.261Z,99.99
2022-11-03T00:11:19.985Z,99.99
2022-11-03T00:12:20.225Z,99.99
2022-11-03T00:13:19.948Z,99.99
2022-11-03T00:14:19.936Z,99.99
2022-11-03T00:15:20.179Z,99.99
2022-11-03T00:16:19.926Z,99.99
2022-11-03T00:17:20.139Z,99.99
2022-11-03T00:18:20.158Z,99.99
2022-11-03T00:19:20.172Z,99.99
2022-11-03T00:20:20.099Z,99.99
2022-11-03T00:21:20.075Z,99.99
2022-11-03T00:22:19.812Z,99.99
2022-11-03T00:23:19.790Z,99.99
2022-11-03T00:24:20.034Z,99.99
2022-11-03T00:25:19.780Z,99.99
2022-11-03T00:26:19.739Z,99.99
2022-11-03T00:27:19.981Z,99.99
2022-11-03T00:28:19.957Z,99.99
2022-11-03T00:29:19.945Z,99.99
2022-11-03T00:30:19.675Z,99.99
2022-11-03T00:31:19.913Z,99.99
2022-11-03T00:32:19.922Z,99.99
2022-11-03T00:33:19.878Z,99.99
2022-11-03T00:34:19.957Z,99.99
2022-11-03T00:35:19.590Z,99.99
2022-11-03T00:36:19.834Z,99.99
2022-11-03T00:37:19.557Z,99.99
2022-11-03T00:38:19.793Z,99.99
2022-11-03T00:39:19.783Z,99.99
2022-11-03T00:40:19.767Z,99.99
2022-11-03T00:41:19.494Z,99.99
2022-11-03T00:42:19.474Z,99.99
2022-11-03T00:43:19.714Z,99.99
2022-11-03T00:44:19.710Z,99.99
2022-11-03T00:45:19.425Z,99.99
2022-11-03T00:46:19.669Z,99.99
2022-11-03T00:47:25.479Z,99.99
2022-11-03T00:48:19.632Z,99.99
2022-11-03T00:49:19.615Z,99.99
2022-11-03T00:50:19.624Z,99.99
2022-11-03T00:51:19.615Z,99.99
2022-11-03T00:52:19.564Z,99.99
2022-11-03T00:53:19.556Z,99.99
2022-11-03T00:54:19.557Z,99.99
2022-11-03T00:55:19.293Z,99.99
2022-11-03T00:56:19.530Z,99.99
2022-11-03T00:57:19.490Z,99.99
2022-11-03T00:58:19.474Z,99.99
2022-11-03T00:59:19.457Z,99.99
2022-11-03T01:00:19.193Z,99.99
2022-11-03T01:01:19.737Z,99.99
2022-11-03T01:02:19.700Z,99.99
2022-11-03T01:03:19.158Z,99.99
2022-11-03T01:04:19.375Z,99.99
2022-11-03T01:05:19.100Z,99.99
2022-11-03T01:06:19.366Z,99.99
2022-11-03T01:07:19.072Z,99.99
2022-11-03T01:08:19.679Z,99.99
2022-11-03T01:09:19.039Z,99.99
2022-11-03T01:10:19.273Z,99.99
2022-11-03T01:11:19.265Z,99.99
2022-11-03T01:12:19.001Z,99.99
2022-11-03T01:13:18.970Z,99.99
2022-11-03T01:14:19.211Z,99.99
2022-11-03T01:15:19.187Z,99.99
2022-11-03T01:16:19.180Z,99.99
2022-11-03T01:17:18.901Z,99.99
2022-11-03T01:18:19.146Z,99.99
2022-11-03T01:19:19.163Z,99.99
2022-11-03T01:20:18.859Z,99.99
2022-11-03T01:21:19.087Z,99.99
2022-11-03T01:22:19.105Z,99.99
2022-11-03T01:23:19.064Z,99.99
2022-11-03T01:24:18.794Z,99.99
2022-11-03T01:25:18.778Z,99.99
2022-11-03T01:26:18.755Z,99.99
2022-11-03T01:27:18.994Z,99.99
2022-11-03T01:28:18.978Z,99.99
2022-11-03T01:29:18.965Z,99.99
2022-11-03T01:30:18.706Z,99.99
2022-11-03T01:31:18.932Z,99.99
2022-11-03T01:32:18.917Z,99.99
2022-11-03T01:33:18.903Z,99.99
2022-11-03T01:34:18.886Z,99.99
2022-11-03T01:35:18.629Z,99.99
2022-11-03T01:36:18.847Z,99.99
2022-11-03T01:37:18.838Z,99.99
2022-11-03T01:38:19.415Z,99.99
2022-11-03T01:39:19.116Z,99.99
2022-11-03T01:40:19.367Z,99.99
2022-11-03T01:41:19.337Z,99.99
2022-11-03T01:42:19.325Z,99.99
2022-11-03T01:43:19.311Z,99.99
2022-11-03T01:44:19.041Z,99.99
2022-11-03T01:45:19.016Z,99.99
2022-11-03T01:46:19.254Z,99.99
2022-11-03T01:47:19.239Z,99.99
2022-11-03T01:48:18.982Z,99.99
2022-11-03T01:49:18.954Z,99.99
2022-11-03T01:50:19.205Z,99.99
2022-11-03T01:51:19.205Z,99.99
2022-11-03T01:52:19.173Z,99.99
2022-11-03T01:53:19.139Z,99.99
2022-11-03T01:54:19.149Z,99.99
2022-11-03T01:55:18.856Z,99.99
2022-11-03T01:56:19.102Z,99.99
2022-11-03T01:57:19.082Z,99.99
2022-11-03T01:58:19.058Z,99.99
2022-11-03T01:59:19.038Z,99.99
2022-11-03T02:00:19.026Z,99.99
2022-11-03T02:01:19.393Z,99.99
2022-11-03T02:02:19.244Z,99.99
2022-11-03T02:03:19.005Z,99.99
2022-11-03T02:04:18.961Z,99.99
2022-11-03T02:05:18.969Z,99.99
2022-11-03T02:06:18.931Z,99.99
2022-11-03T02:07:18.932Z,99.99
2022-11-03T02:08:18.894Z,99.99
2022-11-03T02:09:18.878Z,99.99
2022-11-03T02:10:18.889Z,99.99
2022-11-03T02:11:18.585Z,99.99
2022-11-03T02:12:18.566Z,99.99
2022-11-03T02:13:18.557Z,99.99
2022-11-03T02:14:18.791Z,99.99
2022-11-03T02:15:18.517Z,99.99
2022-11-03T02:16:18.755Z,99.99
2022-11-03T02:17:18.491Z,99.99
2022-11-03T02:18:18.723Z,99.99
2022-11-03T02:19:18.714Z,99.99
2022-11-03T02:20:18.433Z,99.99
2022-11-03T02:21:18.679Z,99.99
2022-11-03T02:22:18.402Z,99.99
2022-11-03T02:23:18.715Z,99.99
2022-11-03T02:24:18.365Z,99.99
2022-11-03T02:25:18.352Z,99.99
2022-11-03T02:26:18.620Z,99.99
2022-11-03T02:27:18.579Z,99.99
2022-11-03T02:28:18.312Z,99.99
2022-11-03T02:29:18.285Z,99.99
2022-11-03T02:30:18.273Z,99.99
2022-11-03T02:31:18.540Z,99.99
2022-11-03T02:32:18.488Z,99.99
2022-11-03T02:33:18.479Z,99.99
2022-11-03T02:34:18.453Z,99.99
2022-11-03T02:35:18.447Z,99.99
2022-11-03T02:36:18.174Z,99.99
2022-11-03T02:37:18.415Z,99.99
2022-11-03T02:38:18.391Z,99.99
2022-11-03T02:39:18.407Z,99.99
2022-11-03T02:40:18.098Z,99.99
2022-11-03T02:41:18.089Z,99.99
2022-11-03T02:42:18.344Z,99.99
2022-11-03T02:43:18.311Z,99.99
2022-11-03T02:44:18.033Z,99.99
2022-11-03T02:45:20.086Z,99.99
2022-11-03T02:46:18.256Z,99.99
2022-11-03T02:47:17.984Z,99.99
2022-11-03T02:48:18.221Z,99.99
2022-11-03T02:49:17.954Z,99.99
2022-11-03T02:50:18.192Z,99.99
2022-11-03T02:51:17.917Z,99.99
2022-11-03T02:52:18.155Z,99.99
2022-11-03T02:53:17.884Z,99.99
2022-11-03T02:54:18.126Z,99.99
2022-11-03T02:55:17.875Z,99.99
2022-11-03T02:56:18.083Z,99.99
2022-11-03T02:57:18.067Z,99.99
2022-11-03T02:58:18.085Z,99.99
2022-11-03T02:59:17.784Z,99.99
2022-11-03T03:00:18.024Z,99.99
2022-11-03T03:01:18.184Z,99.99
2022-11-03T03:02:17.901Z,99.99
2022-11-03T03:03:17.972Z,99.99
2022-11-03T03:04:17.954Z,99.99
2022-11-03T03:05:17.957Z,99.99
2022-11-03T03:06:17.922Z,99.99
2022-11-03T03:07:17.916Z,99.99
2022-11-03T03:08:17.626Z,99.99
2022-11-03T03:09:17.610Z,99.99
2022-11-03T03:10:17.857Z,99.99
2022-11-03T03:11:17.878Z,99.99
2022-11-03T03:12:17.821Z,99.99
2022-11-03T03:13:17.548Z,99.99
2022-11-03T03:14:17.819Z,99.99
2022-11-03T03:15:17.518Z,99.99
2022-11-03T03:16:17.757Z,99.99
2022-11-03T03:17:17.478Z,99.99
2022-11-03T03:18:17.469Z,99.99
2022-11-03T03:19:17.703Z,99.99
2022-11-03T03:20:17.431Z,99.99
2022-11-03T03:21:17.666Z,99.99
2022-11-03T03:22:17.401Z,99.99
2022-11-03T03:23:18.361Z,99.99
2022-11-03T03:24:17.619Z,99.99
2022-11-03T03:25:17.356Z,99.99
2022-11-03T03:26:17.591Z,99.99
2022-11-03T03:27:17.592Z,99.99
2022-11-03T03:28:17.293Z,99.99
2022-11-03T03:29:17.542Z,99.99
2022-11-03T03:30:17.545Z,99.99
2022-11-03T03:31:17.243Z,99.99
2022-11-03T03:32:17.484Z,99.99
2022-11-03T03:49:23.777Z,99.99
2022-11-03T03:50:23.451Z,99.99
2022-11-03T03:51:23.430Z,99.99
2022-11-03T03:52:23.671Z,99.99
2022-11-03T03:53:23.651Z,99.99
2022-11-03T03:54:23.630Z,99.99
2022-11-03T03:56:23.336Z,99.99
2022-11-03T03:57:23.571Z,99.99
2022-11-03T03:58:23.564Z,99.99
2022-11-03T03:59:23.538Z,99.99
2022-11-03T04:00:23.526Z,99.99
2022-11-03T04:01:23.631Z,99.99
2022-11-03T04:02:23.638Z,99.99
2022-11-03T04:03:23.466Z,99.99
2022-11-03T04:04:23.459Z,99.99
2022-11-03T04:05:23.476Z,99.99
2022-11-03T04:06:23.425Z,99.99
2022-11-03T04:07:23.395Z,99.99
2022-11-03T04:08:23.125Z,99.99
2022-11-03T04:09:24.017Z,99.99
2022-11-03T04:10:23.765Z,99.99
2022-11-03T04:11:23.988Z,99.99
2022-11-03T04:12:23.713Z,99.99
2022-11-03T04:13:23.955Z,99.99
2022-11-03T04:14:23.679Z,99.99
2022-11-03T04:15:23.656Z,99.99
2022-11-03T04:16:23.900Z,99.99
2022-11-03T04:17:23.883Z,99.99
2022-11-03T04:18:23.869Z,99.99
2022-11-03T04:19:23.923Z,99.99
2022-11-03T04:20:23.832Z,99.99
2022-11-03T04:21:23.865Z,99.99
2022-11-03T04:22:23.823Z,99.99
2022-11-03T04:23:23.519Z,99.99
2022-11-03T04:24:23.768Z,99.99
2022-11-03T04:25:23.490Z,99.99
2022-11-03T04:26:23.730Z,99.99
2022-11-03T04:27:23.705Z,99.99
2022-11-03T04:28:23.693Z,99.99
2022-11-03T04:29:23.679Z,99.99
2022-11-03T04:30:23.411Z,99.99
2022-11-03T04:31:23.644Z,99.99
2022-11-03T04:32:23.631Z,99.99
2022-11-03T04:33:23.615Z,99.99
2022-11-03T04:34:23.338Z,99.99
2022-11-03T04:35:23.328Z,99.99
2022-11-03T04:36:23.566Z,99.99
2022-11-03T04:37:23.592Z,99.99
2022-11-03T04:38:23.591Z,99.99
2022-11-03T04:39:23.254Z,99.99
2022-11-03T04:40:23.250Z,99.99
2022-11-03T04:41:23.271Z,99.99
2022-11-03T04:42:23.201Z,99.99
2022-11-03T04:43:23.194Z,99.99
2022-11-03T04:44:23.421Z,99.99
2022-11-03T04:45:23.151Z,99.99
2022-11-03T04:46:23.388Z,99.99
2022-11-03T04:47:23.378Z,99.99
2022-11-03T04:48:23.097Z,99.99
2022-11-03T04:49:23.340Z,99.99
2022-11-03T04:50:23.326Z,99.99
2022-11-03T04:51:23.306Z,99.99
2022-11-03T04:52:23.030Z,99.99
2022-11-03T04:53:23.328Z,99.99
2022-11-03T04:54:22.996Z,99.99
2022-11-03T04:55:23.239Z,99.99
2022-11-03T04:56:23.223Z,99.99
2022-11-03T04:57:23.214Z,99.99
2022-11-03T04:58:23.197Z,99.99
2022-11-03T04:59:22.914Z,99.99
2022-11-03T05:00:22.897Z,99.99
2022-11-03T05:01:26.779Z,99.99
2022-11-03T05:02:23.119Z,99.99
2022-11-03T05:03:22.850Z,99.99
2022-11-03T05:04:23.082Z,99.99
2022-11-03T05:05:23.068Z,99.99
2022-11-03T05:06:23.049Z,99.99
2022-11-03T05:07:23.039Z,99.99
2022-11-03T05:08:22.766Z,99.99
2022-11-03T05:09:23.055Z,99.99
2022-11-03T05:10:22.725Z,99.99
2022-11-03T05:11:22.969Z,99.99
2022-11-03T05:12:22.945Z,99.99
2022-11-03T05:13:22.677Z,99.99
2022-11-03T05:14:22.664Z,99.99
2022-11-03T05:15:22.898Z,99.99
2022-11-03T05:16:22.623Z,99.99
2022-11-03T05:17:22.870Z,99.99
2022-11-03T05:18:22.595Z,99.99
2022-11-03T05:19:22.832Z,99.99
2022-11-03T05:20:22.812Z,99.99
2022-11-03T05:21:22.795Z,99.99
2022-11-03T05:22:22.785Z,99.99
2022-11-03T05:23:22.764Z,99.99
2022-11-03T05:24:22.744Z,99.99
2022-11-03T05:25:22.774Z,99.99
2022-11-03T05:26:22.707Z,99.99
2022-11-03T05:27:22.439Z,99.99
2022-11-03T05:28:22.420Z,99.99
2022-11-03T05:29:22.657Z,99.99
2022-11-03T05:30:22.386Z,99.99
2022-11-03T05:31:22.631Z,99.99
2022-11-03T05:32:22.617Z,99.99
2022-11-03T05:33:22.588Z,99.99
2022-11-03T05:34:22.318Z,99.99
2022-11-03T05:35:22.304Z,99.99
2022-11-03T05:36:22.285Z,99.99
2022-11-03T05:37:28.463Z,99.99
2022-11-03T05:38:22.507Z,99.99
2022-11-03T05:39:22.485Z,99.99
2022-11-03T05:40:22.217Z,99.99
2022-11-03T05:41:22.502Z,99.99
2022-11-03T05:42:22.441Z,99.99
2022-11-03T05:43:22.431Z,99.99
2022-11-03T05:44:22.152Z,99.99
2022-11-03T05:45:22.390Z,99.99
2022-11-03T05:46:22.375Z,99.99
2022-11-03T05:47:22.371Z,99.99
2022-11-03T05:48:22.335Z,99.48
2022-11-03T05:49:22.316Z,98.91
2022-11-03T05:50:22.058Z,97.97
2022-11-03T05:51:22.283Z,98.02
2022-11-03T05:52:22.275Z,98.21
2022-11-03T05:53:21.997Z,98.39
2022-11-03T05:54:22.400Z,98.3
2022-11-03T05:55:22.216Z,98.77
2022-11-03T05:56:21.945Z,99.53
2022-11-03T05:57:22.228Z,99.63
2022-11-03T05:58:21.924Z,99.99
2022-11-03T06:00:22.147Z,99.99
2022-11-03T06:01:22.020Z,99.99
2022-11-03T06:02:22.276Z,99.99
2022-11-03T06:03:22.081Z,99.72
2022-11-03T06:04:22.074Z,99.34
2022-11-03T06:05:22.058Z,99.34
2022-11-03T06:06:21.778Z,98.87
2022-11-03T06:07:22.022Z,98.96
2022-11-03T06:08:22.062Z,99.34
2022-11-03T06:09:21.834Z,99.63
2022-11-03T06:10:22.096Z,99.99
2022-11-03T06:11:22.055Z,99.99
2022-11-03T06:12:22.045Z,99.63
2022-11-03T06:13:22.079Z,98.96
2022-11-03T06:14:25.453Z,99.91
2022-11-03T06:15:21.738Z,99.63
2022-11-03T06:16:21.976Z,99.99
2022-11-03T06:17:21.707Z,99.99
2022-11-03T06:18:21.942Z,99.99
2022-11-03T06:19:21.922Z,99.99
2022-11-03T06:20:21.995Z,99.99
2022-11-03T06:21:21.887Z,99.99
2022-11-03T06:22:21.620Z,99.99
2022-11-03T06:23:21.864Z,99.99
2022-11-03T06:24:21.839Z,99.99
2022-11-03T06:25:21.831Z,99.99
2022-11-03T06:26:21.806Z,99.99
2022-11-03T06:27:21.795Z,99.99
2022-11-03T06:28:21.786Z,99.99
2022-11-03T06:29:21.811Z,99.99
2022-11-03T06:30:21.490Z,99.99
2022-11-03T06:31:25.221Z,99.99
2022-11-03T06:32:21.727Z,99.99
2022-11-03T06:33:21.447Z,99.99
2022-11-03T06:34:21.424Z,99.99
2022-11-03T06:35:21.675Z,99.99
2022-11-03T06:36:21.395Z,99.99
2022-11-03T06:37:21.759Z,99.99
2022-11-03T06:38:21.740Z,99.99
2022-11-03T06:39:21.469Z,99.99
2022-11-03T06:40:21.452Z,99.99
2022-11-03T06:41:21.700Z,99.99
2022-11-03T06:42:21.424Z,99.99
2022-11-03T06:43:21.410Z,99.99
2022-11-03T06:44:21.386Z,99.99
2022-11-03T06:45:21.681Z,99.99
2022-11-03T06:46:21.359Z,99.99
2022-11-03T06:47:21.607Z,99.99
2022-11-03T06:48:21.585Z,99.99
2022-11-03T06:49:21.568Z,99.99
2022-11-03T06:50:21.288Z,99.99
2022-11-03T06:51:21.529Z,99.99
2022-11-03T06:52:21.517Z,99.99
2022-11-03T06:53:21.500Z,99.99
2022-11-03T06:54:21.227Z,99.99
2022-11-03T06:55:21.476Z,99.99
2022-11-03T06:56:21.193Z,99.99
2022-11-03T06:57:21.186Z,99.99
2022-11-03T06:58:21.163Z,99.99
2022-11-03T06:59:21.147Z,99.99
2022-11-03T07:00:38.714Z,99.99
2022-11-03T07:01:21.688Z,99.99
2022-11-03T07:02:21.290Z,99.99
2022-11-03T07:03:21.085Z,99.99
2022-11-03T07:04:21.319Z,99.99
2022-11-03T07:05:21.322Z,99.99
2022-11-03T07:06:21.037Z,99.99
2022-11-03T07:07:21.020Z,99.99
2022-11-03T07:08:21.000Z,99.99
2022-11-03T07:09:21.001Z,99.99
2022-11-03T07:10:20.973Z,99.99
2022-11-03T07:11:21.222Z,99.99
2022-11-03T07:12:21.198Z,99.99
2022-11-03T07:13:21.194Z,99.99
2022-11-03T07:14:21.166Z,99.99
2022-11-03T07:15:21.159Z,99.99
2022-11-03T07:16:21.692Z,99.99
2022-11-03T07:17:21.158Z,99.99
2022-11-03T07:18:20.852Z,99.99
2022-11-03T07:19:21.094Z,99.99
2022-11-03T07:20:21.078Z,99.99
2022-11-03T07:21:21.057Z,99.99
2022-11-03T07:22:20.792Z,99.99
2022-11-03T07:23:20.770Z,99.99
2022-11-03T07:24:20.767Z,99.99
2022-11-03T07:25:20.997Z,99.99
2022-11-03T07:26:20.984Z,99.99
2022-11-03T07:27:20.964Z,99.99
2022-11-03T07:28:20.955Z,99.99
2022-11-03T07:29:20.938Z,99.99
2022-11-03T07:30:20.669Z,99.99
2022-11-03T07:31:20.903Z,99.99
2022-11-03T07:32:20.661Z,99.99
2022-11-03T07:33:20.896Z,99.99
2022-11-03T07:34:20.867Z,99.99
2022-11-03T07:35:20.844Z,99.99
2022-11-03T07:36:20.832Z,99.99
2022-11-03T07:37:20.563Z,99.99
2022-11-03T07:38:20.546Z,99.99
2022-11-03T07:39:20.780Z,99.99
2022-11-03T07:40:20.772Z,99.99
2022-11-03T07:41:20.498Z,99.99
2022-11-03T07:42:20.767Z,99.99
2022-11-03T07:43:20.728Z,99.99
2022-11-03T07:44:21.432Z,99.99
2022-11-03T07:45:21.405Z,99.99
2022-11-03T07:46:21.401Z,99.99
2022-11-03T07:47:21.380Z,99.99
2022-11-03T07:48:21.401Z,99.99
2022-11-03T07:49:21.373Z,99.99
2022-11-03T07:50:21.077Z,99.99
2022-11-03T07:51:21.317Z,99.99
2022-11-03T07:52:21.313Z,99.99
2022-11-03T07:53:27.832Z,99.99
2022-11-03T07:54:21.276Z,99.99
2022-11-03T07:55:21.258Z,99.99
2022-11-03T07:56:21.431Z,99.99
2022-11-03T07:57:20.978Z,99.99
2022-11-03T07:58:21.215Z,99.99
2022-11-03T07:59:21.049Z,99.99
2022-11-03T08:00:21.188Z,99.99
2022-11-03T08:01:21.057Z,99.99
2022-11-03T08:02:21.199Z,99.99
2022-11-03T08:03:21.150Z,99.99
2022-11-03T08:04:21.162Z,99.99
2022-11-03T08:05:22.254Z,99.99
2022-11-03T08:06:22.538Z,99.99
2022-11-03T08:07:20.825Z,99.99
2022-11-03T08:08:20.813Z,99.99
2022-11-03T08:09:20.802Z,99.99
2022-11-03T08:10:21.039Z,99.99
2022-11-03T08:11:23.218Z,99.99
2022-11-03T08:12:20.758Z,99.99
2022-11-03T08:13:21.006Z,99.99
2022-11-03T08:14:20.994Z,99.99
2022-11-03T08:15:20.969Z,99.99
2022-11-03T08:16:20.953Z,99.99
2022-11-03T08:17:20.944Z,99.99
2022-11-03T08:18:20.929Z,99.99
2022-11-03T08:19:20.914Z,99.99
2022-11-03T08:20:20.923Z,99.99
2022-11-03T08:21:20.908Z,99.99
2022-11-03T08:22:20.621Z,99.99
2022-11-03T08:23:29.557Z,99.99
2022-11-03T08:24:20.839Z,99.99
2022-11-03T08:25:20.828Z,99.99
2022-11-03T08:26:20.812Z,99.99
2022-11-03T08:27:20.807Z,99.99
2022-11-03T08:28:20.526Z,99.99
2022-11-03T08:29:20.772Z,99.99
2022-11-03T08:30:20.500Z,99.99
2022-11-03T08:31:20.494Z,99.99
2022-11-03T08:32:20.723Z,99.99
2022-11-03T08:33:20.851Z,99.99
2022-11-03T08:34:20.697Z,99.99
2022-11-03T08:35:20.691Z,99.99
2022-11-03T08:36:20.927Z,99.99
2022-11-03T08:37:20.693Z,99.99
2022-11-03T08:38:20.657Z,99.99
2022-11-03T08:39:20.387Z,99.99
2022-11-03T08:40:20.623Z,99.99
2022-11-03T08:41:20.604Z,99.99
2022-11-03T08:42:20.595Z,99.99
2022-11-03T08:43:20.576Z,99.99
2022-11-03T08:44:20.559Z,99.99
2022-11-03T08:45:20.550Z,99.99
2022-11-03T08:46:21.062Z,99.99
2022-11-03T08:47:20.519Z,99.99
2022-11-03T08:48:21.064Z,99.99
2022-11-03T08:49:21.311Z,99.99
2022-11-03T08:50:21.297Z,99.99
2022-11-03T08:51:21.030Z,99.99
2022-11-03T08:52:21.033Z,99.99
2022-11-03T08:53:21.284Z,99.99
2022-11-03T08:54:20.987Z,99.99
2022-11-03T08:55:21.231Z,99.99
2022-11-03T08:56:24.637Z,99.99
2022-11-03T08:57:21.204Z,99.99
2022-11-03T08:58:21.193Z,99.99
2022-11-03T08:59:21.176Z,99.99
2022-11-03T09:00:21.166Z,99.99
2022-11-03T09:01:21.343Z,99.99
2022-11-03T09:02:21.281Z,99.99
2022-11-03T09:03:21.017Z,99.99
2022-11-03T09:04:21.153Z,99.99
2022-11-03T09:05:20.841Z,99.99
2022-11-03T09:06:21.099Z,99.99
2022-11-03T09:07:21.198Z,99.99
2022-11-03T09:10:21.135Z,99.99
2022-11-03T09:11:20.033Z,99.99
2022-11-03T09:12:20.016Z,99.99
2022-11-03T09:13:20.011Z,99.99
2022-11-03T09:14:19.993Z,99.99
2022-11-03T09:15:19.976Z,99.99
2022-11-03T09:16:20.084Z,99.99
2022-11-03T09:17:19.961Z,99.99
2022-11-03T09:18:19.948Z,99.99
2022-11-03T09:19:19.926Z,99.99
2022-11-03T09:20:19.688Z,99.99
2022-11-03T09:21:19.648Z,99.99
2022-11-03T09:22:19.894Z,99.99
2022-11-03T09:23:19.619Z,99.99
2022-11-03T09:24:19.876Z,99.99
2022-11-03T09:25:19.849Z,99.99
2022-11-03T09:26:19.947Z,99.99
2022-11-03T09:27:19.826Z,99.99
2022-11-03T09:28:19.821Z,99.99
2022-11-03T09:29:19.543Z,99.99
2022-11-03T09:30:19.788Z,99.99
2022-11-03T09:31:20.263Z,99.99
2022-11-03T09:32:25.521Z,99.99
2022-11-03T09:33:20.206Z,99.99
2022-11-03T09:34:19.933Z,99.99
2022-11-03T09:35:19.913Z,99.99
2022-11-03T09:36:20.163Z,99.99
2022-11-03T09:37:20.156Z,99.99
2022-11-03T09:38:19.882Z,99.99
2022-11-03T09:39:20.128Z,99.99
2022-11-03T09:40:19.856Z,99.99
2022-11-03T09:41:52.259Z,99.99
2022-11-03T09:42:20.111Z,99.99
2022-11-03T09:43:19.815Z,99.99
2022-11-03T09:44:20.065Z,99.99
2022-11-03T09:45:20.055Z,99.99
2022-11-03T09:46:20.048Z,99.99
2022-11-03T09:47:20.023Z,99.22
2022-11-03T09:48:19.766Z,99.03
2022-11-03T09:49:20.003Z,98.74
2022-11-03T09:50:19.722Z,98.46
2022-11-03T09:51:19.964Z,98.94
2022-11-03T09:52:19.953Z,98.18
2022-11-03T09:53:19.695Z,99.03
2022-11-03T09:54:19.700Z,99.08
2022-11-03T09:55:19.920Z,98.13
2022-11-03T09:56:19.656Z,97.56
2022-11-03T09:57:19.919Z,97.46
2022-11-03T09:58:19.902Z,97.27
2022-11-03T09:59:19.870Z,96.8
2022-11-03T10:00:19.667Z,96.03
2022-11-03T10:01:20.210Z,95.27
2022-11-03T10:02:20.080Z,95.84
2022-11-03T10:03:19.826Z,94.22
2022-11-03T10:04:19.555Z,94.32
2022-11-03T10:05:19.827Z,93.74
2022-11-03T10:06:19.811Z,92.5
2022-11-03T10:07:19.525Z,92.74
2022-11-03T10:08:24.851Z,92.27
2022-11-03T10:09:19.762Z,92.27
2022-11-03T10:10:19.863Z,92.36
2022-11-03T10:11:19.736Z,92.36
2022-11-03T10:12:19.716Z,91.88
2022-11-03T10:13:19.488Z,90.55
2022-11-03T10:14:19.757Z,90.45
2022-11-03T10:15:19.705Z,90.55
2022-11-03T10:16:19.697Z,89.26
2022-11-03T10:17:19.671Z,89.54
2022-11-03T10:18:19.414Z,88.59
2022-11-03T10:19:19.642Z,88.4
2022-11-03T10:20:19.395Z,88.02
2022-11-03T10:21:19.620Z,87.16
2022-11-03T10:22:19.632Z,86.98
2022-11-03T10:23:19.355Z,87.07
2022-11-03T10:24:19.600Z,85.93
2022-11-03T10:25:19.578Z,85.35
2022-11-03T10:26:19.584Z,84.97
2022-11-03T10:27:19.554Z,85.35
2022-11-03T10:28:19.562Z,85.3
2022-11-03T10:30:19.603Z,83.48
2022-11-03T10:31:19.507Z,84.16
2022-11-03T10:32:19.496Z,83.11
2022-11-03T10:33:19.490Z,82.15
2022-11-03T10:34:19.475Z,80.91
2022-11-03T10:35:19.219Z,80.72
2022-11-03T10:36:19.220Z,81.2
2022-11-03T10:37:19.459Z,80.62
2022-11-03T10:38:19.455Z,80.15
2022-11-03T10:39:19.436Z,80.24
2022-11-03T10:40:48.866Z,79.77
2022-11-03T10:41:19.431Z,79.96
2022-11-03T10:42:19.393Z,79.57
2022-11-03T10:43:19.378Z,78.72
2022-11-03T10:44:19.115Z,79
2022-11-03T10:45:19.172Z,78.91
2022-11-03T10:46:54.752Z,78.72
2022-11-03T10:47:19.087Z,78.52
2022-11-03T10:48:19.332Z,78.72
2022-11-03T10:49:19.513Z,77.86
2022-11-03T10:50:19.066Z,78.14
2022-11-03T10:51:19.291Z,77.76
2022-11-03T10:52:19.082Z,77.8
2022-11-03T10:53:19.336Z,77.51
2022-11-03T10:54:19.013Z,77.57
2022-11-03T10:55:25.128Z,77.7
2022-11-03T10:56:18.998Z,77.8
2022-11-03T10:57:19.237Z,77.7
2022-11-03T10:58:18.979Z,77.8
2022-11-03T10:59:19.222Z,78.09
2022-11-03T11:00:19.333Z,78.37
2022-11-03T11:01:19.464Z,77.23
2022-11-03T11:02:19.432Z,77.51
2022-11-03T11:03:23.377Z,77.42
2022-11-03T11:04:19.297Z,77.7
2022-11-03T11:05:18.913Z,77.7
2022-11-03T11:06:19.147Z,78.18
2022-11-03T11:07:19.133Z,77.51
2022-11-03T11:08:19.314Z,77.42
2022-11-03T11:09:18.865Z,77.23
2022-11-03T11:10:18.852Z,77.42
2022-11-03T11:11:18.839Z,76.84
2022-11-03T11:12:18.839Z,76.84
2022-11-03T11:13:19.149Z,76.46
2022-11-03T11:14:18.813Z,76.56
2022-11-03T11:15:19.059Z,76.46
2022-11-03T11:16:19.052Z,76.56
2022-11-03T11:17:19.133Z,77.13
2022-11-03T11:19:19.015Z,76.94
2022-11-03T11:20:18.755Z,76.75
2022-11-03T11:21:18.995Z,76.94
2022-11-03T11:22:19.028Z,76.94
2022-11-03T11:23:18.974Z,77.23
2022-11-03T11:24:18.972Z,77.51
2022-11-03T11:25:18.958Z,77.89
2022-11-03T11:26:18.949Z,77.7
2022-11-03T11:27:18.939Z,77.8
2022-11-03T11:28:18.930Z,77.51
2022-11-03T11:29:18.919Z,77.8
2022-11-03T11:30:18.913Z,77.23
2022-11-03T11:31:18.933Z,76.98
2022-11-03T11:32:18.898Z,76.75
2022-11-03T11:33:18.951Z,76.84
2022-11-03T11:34:18.912Z,76.84
2022-11-03T11:35:18.615Z,76.6
2022-11-03T11:36:18.596Z,75.98
2022-11-03T11:37:18.844Z,76.03
2022-11-03T11:38:18.830Z,76.18
2022-11-03T11:39:18.825Z,76.27
2022-11-03T11:40:18.810Z,75.7
2022-11-03T11:41:18.551Z,75.98
2022-11-03T11:42:18.982Z,76.08
2022-11-03T11:43:18.791Z,76.27
2022-11-03T11:44:18.773Z,76.84
2022-11-03T11:45:18.764Z,76.75
2022-11-03T11:46:18.497Z,76.56
2022-11-03T11:47:18.744Z,76.65
2022-11-03T11:48:21.365Z,76.65
2022-11-03T11:49:18.725Z,76.75
2022-11-03T11:50:18.747Z,76.65
2022-11-03T11:51:18.725Z,76.88
2022-11-03T11:52:21.706Z,77.03
2022-11-03T11:53:18.689Z,77.03
2022-11-03T11:54:20.316Z,76.69
2022-11-03T11:55:18.415Z,76.94
2022-11-03T11:56:18.410Z,77.51
2022-11-03T11:57:18.394Z,76.84
2022-11-03T11:58:18.647Z,76.75
2022-11-03T11:59:26.208Z,77.42
2022-11-03T12:00:18.619Z,77.89
2022-11-03T12:01:18.701Z,78.56
2022-11-03T12:02:18.596Z,77.89
2022-11-03T12:03:18.722Z,77.61
2022-11-03T12:05:18.322Z,76.75
2022-11-03T12:06:18.582Z,76.56
2022-11-03T12:07:18.551Z,76.94
2022-11-03T12:08:18.537Z,76.84
2022-11-03T12:09:18.278Z,76.6
2022-11-03T12:10:18.517Z,75.98
2022-11-03T12:11:18.559Z,76.08
2022-11-03T12:12:18.245Z,75.89
2022-11-03T12:13:18.491Z,75.98
2022-11-03T12:14:18.477Z,75.89
2022-11-03T12:15:18.475Z,75.89
2022-11-03T12:16:18.207Z,76.08
2022-11-03T12:17:18.456Z,76.37
2022-11-03T12:18:18.439Z,76.46
2022-11-03T12:19:18.180Z,76.46
2022-11-03T12:20:18.192Z,76.37
2022-11-03T12:21:18.159Z,76.46
2022-11-03T12:22:18.493Z,76.03
2022-11-03T12:23:18.399Z,75.45
2022-11-03T12:24:18.385Z,75.83
2022-11-03T12:25:18.370Z,75.45
2022-11-03T12:26:18.376Z,74.93
2022-11-03T12:27:18.352Z,74.98
2022-11-03T12:28:18.345Z,74.08
2022-11-03T12:29:18.080Z,74.37
2022-11-03T12:30:18.328Z,74.11
2022-11-03T12:31:18.317Z,75.03
2022-11-03T12:32:35.916Z,75.13
2022-11-03T12:33:18.297Z,74.93
2022-11-03T12:34:18.039Z,75.22
2022-11-03T12:35:18.276Z,75.42
2022-11-03T12:36:18.041Z,75.22
2022-11-03T12:37:18.263Z,75.89
2022-11-03T12:38:18.280Z,75.42
2022-11-03T12:39:17.985Z,75.51
2022-11-03T12:40:17.981Z,75.03
2022-11-03T12:41:18.219Z,75.22
2022-11-03T12:42:18.213Z,75.42
2022-11-03T12:43:17.947Z,75.22
2022-11-03T12:44:18.121Z,75.32
2022-11-03T12:45:18.280Z,75.51
2022-11-03T12:46:18.270Z,75.6
2022-11-03T12:47:18.264Z,76.18
2022-11-03T12:48:18.251Z,75.98
2022-11-03T12:49:17.986Z,76.08
2022-11-03T12:50:18.236Z,76.56
2022-11-03T12:51:18.221Z,75.89
2022-11-03T12:52:17.989Z,76.04
2022-11-03T12:53:18.199Z,76.42
2022-11-03T12:54:18.219Z,76.33
2022-11-03T12:55:18.278Z,76.04
2022-11-03T12:56:18.176Z,76.42
2022-11-03T12:57:17.908Z,76.9
2022-11-03T12:58:17.897Z,76.71
2022-11-03T12:59:18.139Z,76.62
2022-11-03T13:00:17.878Z,76.62
2022-11-03T13:01:18.224Z,76.81
2022-11-03T13:02:18.493Z,77.38
2022-11-03T13:03:17.845Z,77.47
2022-11-03T13:04:18.110Z,76.81
2022-11-03T13:05:18.083Z,77.7
2022-11-03T13:06:18.073Z,77.42
2022-11-03T13:07:26.747Z,77.03
2022-11-03T13:09:17.786Z,77.19
2022-11-03T13:10:18.063Z,77.09
2022-11-03T13:11:17.767Z,77.51
2022-11-03T13:12:18.019Z,77.7
2022-11-03T13:13:18.004Z,77.89
2022-11-03T13:14:17.738Z,78.23
2022-11-03T13:15:17.989Z,78.23
2022-11-03T13:16:17.974Z,78.33
2022-11-03T13:17:17.965Z,78.33